sensor_id;sensor_type;location;lat;lon;timestamp;temperature;humidity
34768;DHT22;21755;43.608;1.236;2022-07-09T00:00:52;21.70;99.90
34768;DHT22;21755;43.608;1.236;2022-07-09T00:03:18;21.60;99.90
34768;DHT22;21755;43.608;1.236;2022-07-09T00:05:44;21.60;99.90
34768;DHT22;21755;43.608;1.236;2022-07-09T00:08:09;21.50;99.90
34768;DHT22;21755;43.608;1.236;2022-07-09T00:10:35;21.40;99.90
34768;DHT22;21755;43.608;1.236;2022-07-09T00:13:01;21.40;99.90
34768;DHT22;21755;43.608;1.236;2022-07-09T00:15:27;21.40;99.90
34768;DHT22;21755;43.608;1.236;2022-07-09T00:17:53;21.40;99.90
34768;DHT22;21755;43.608;1.236;2022-07-09T00:20:19;21.40;99.90
34768;DHT22;21755;43.608;1.236;2022-07-09T00:22:45;21.50;99.90
34768;DHT22;21755;43.608;1.236;2022-07-09T00:25:11;21.40;99.90
34768;DHT22;21755;43.608;1.236;2022-07-09T00:27:37;21.40;99.90
34768;DHT22;21755;43.608;1.236;2022-07-09T00:30:03;21.40;99.90
34768;DHT22;21755;43.608;1.236;2022-07-09T00:32:29;21.40;99.90
34768;DHT22;21755;43.608;1.236;2022-07-09T00:34:55;21.30;99.90
34768;DHT22;21755;43.608;1.236;2022-07-09T00:37:21;21.30;99.90
34768;DHT22;21755;43.608;1.236;2022-07-09T00:39:47;21.20;99.90
34768;DHT22;21755;43.608;1.236;2022-07-09T00:42:13;21.10;99.90
34768;DHT22;21755;43.608;1.236;2022-07-09T00:44:39;21.00;99.90
34768;DHT22;21755;43.608;1.236;2022-07-09T00:47:06;21.00;99.90
34768;DHT22;21755;43.608;1.236;2022-07-09T00:49:37;21.00;99.90
34768;DHT22;21755;43.608;1.236;2022-07-09T00:52:06;20.80;99.90
34768;DHT22;21755;43.608;1.236;2022-07-09T00:54:34;20.80;99.90
34768;DHT22;21755;43.608;1.236;2022-07-09T00:57:02;21.00;99.90
34768;DHT22;21755;43.608;1.236;2022-07-09T00:59:30;20.90;99.90
34768;DHT22;21755;43.608;1.236;2022-07-09T01:01:56;21.00;99.90
34768;DHT22;21755;43.608;1.236;2022-07-09T01:04:22;21.00;99.90
34768;DHT22;21755;43.608;1.236;2022-07-09T01:06:48;20.90;99.90
34768;DHT22;21755;43.608;1.236;2022-07-09T01:09:14;21.00;99.90
34768;DHT22;21755;43.608;1.236;2022-07-09T01:11:40;20.90;99.90
34768;DHT22;21755;43.608;1.236;2022-07-09T01:14:06;20.90;99.90
34768;DHT22;21755;43.608;1.236;2022-07-09T01:16:33;21.00;99.90
34768;DHT22;21755;43.608;1.236;2022-07-09T01:19:00;21.00;99.90
34768;DHT22;21755;43.608;1.236;2022-07-09T01:21:26;20.90;99.90
34768;DHT22;21755;43.608;1.236;2022-07-09T01:23:52;20.80;99.90
34768;DHT22;21755;43.608;1.236;2022-07-09T01:26:18;20.80;99.90
34768;DHT22;21755;43.608;1.236;2022-07-09T01:28:48;20.90;99.90
34768;DHT22;21755;43.608;1.236;2022-07-09T01:31:14;21.10;99.90
34768;DHT22;21755;43.608;1.236;2022-07-09T01:33:40;21.00;99.90
34768;DHT22;21755;43.608;1.236;2022-07-09T01:36:09;20.80;99.90
34768;DHT22;21755;43.608;1.236;2022-07-09T01:38:36;20.80;99.90
34768;DHT22;21755;43.608;1.236;2022-07-09T01:41:02;20.70;99.90
34768;DHT22;21755;43.608;1.236;2022-07-09T01:43:28;20.70;99.90
34768;DHT22;21755;43.608;1.236;2022-07-09T01:45:56;20.80;99.90
34768;DHT22;21755;43.608;1.236;2022-07-09T01:48:22;20.60;99.90
34768;DHT22;21755;43.608;1.236;2022-07-09T01:50:48;20.50;99.90
34768;DHT22;21755;43.608;1.236;2022-07-09T01:53:14;20.40;99.90
34768;DHT22;21755;43.608;1.236;2022-07-09T01:55:40;20.20;99.90
34768;DHT22;21755;43.608;1.236;2022-07-09T01:58:06;20.10;99.90
34768;DHT22;21755;43.608;1.236;2022-07-09T02:00:32;20.30;99.90
34768;DHT22;21755;43.608;1.236;2022-07-09T02:02:58;20.50;99.90
34768;DHT22;21755;43.608;1.236;2022-07-09T02:05:24;20.50;99.90
34768;DHT22;21755;43.608;1.236;2022-07-09T02:07:50;20.30;99.90
34768;DHT22;21755;43.608;1.236;2022-07-09T02:10:16;20.20;99.90
34768;DHT22;21755;43.608;1.236;2022-07-09T02:12:42;20.10;99.90
34768;DHT22;21755;43.608;1.236;2022-07-09T02:15:08;20.00;99.90
34768;DHT22;21755;43.608;1.236;2022-07-09T02:17:36;19.90;99.90
34768;DHT22;21755;43.608;1.236;2022-07-09T02:20:03;19.90;99.90
34768;DHT22;21755;43.608;1.236;2022-07-09T02:22:30;20.30;99.90
34768;DHT22;21755;43.608;1.236;2022-07-09T02:24:56;20.40;99.90
34768;DHT22;21755;43.608;1.236;2022-07-09T02:27:22;20.30;99.90
34768;DHT22;21755;43.608;1.236;2022-07-09T02:29:48;20.50;99.90
34768;DHT22;21755;43.608;1.236;2022-07-09T02:32:14;20.50;99.90
34768;DHT22;21755;43.608;1.236;2022-07-09T02:34:40;20.50;99.90
34768;DHT22;21755;43.608;1.236;2022-07-09T02:37:06;20.40;99.90
34768;DHT22;21755;43.608;1.236;2022-07-09T02:39:33;20.20;99.90
34768;DHT22;21755;43.608;1.236;2022-07-09T02:41:59;20.20;99.90
34768;DHT22;21755;43.608;1.236;2022-07-09T02:44:25;20.10;99.90
34768;DHT22;21755;43.608;1.236;2022-07-09T02:46:51;19.90;99.90
34768;DHT22;21755;43.608;1.236;2022-07-09T02:49:17;19.70;99.90
34768;DHT22;21755;43.608;1.236;2022-07-09T02:51:43;19.60;99.90
34768;DHT22;21755;43.608;1.236;2022-07-09T02:54:09;19.50;99.90
34768;DHT22;21755;43.608;1.236;2022-07-09T02:56:35;19.40;99.90
34768;DHT22;21755;43.608;1.236;2022-07-09T02:59:01;19.30;99.90
34768;DHT22;21755;43.608;1.236;2022-07-09T03:01:28;19.30;99.90
34768;DHT22;21755;43.608;1.236;2022-07-09T03:03:54;19.20;99.90
34768;DHT22;21755;43.608;1.236;2022-07-09T03:06:21;19.00;99.90
34768;DHT22;21755;43.608;1.236;2022-07-09T03:08:47;18.90;99.90
34768;DHT22;21755;43.608;1.236;2022-07-09T03:11:13;19.00;99.90
34768;DHT22;21755;43.608;1.236;2022-07-09T03:13:39;18.80;99.90
34768;DHT22;21755;43.608;1.236;2022-07-09T03:16:05;18.80;99.90
34768;DHT22;21755;43.608;1.236;2022-07-09T03:18:32;18.90;99.90
34768;DHT22;21755;43.608;1.236;2022-07-09T03:20:59;19.10;99.90
34768;DHT22;21755;43.608;1.236;2022-07-09T03:23:25;19.10;99.90
34768;DHT22;21755;43.608;1.236;2022-07-09T03:25:51;19.00;99.90
34768;DHT22;21755;43.608;1.236;2022-07-09T03:28:17;19.30;99.90
34768;DHT22;21755;43.608;1.236;2022-07-09T03:30:44;19.40;99.90
34768;DHT22;21755;43.608;1.236;2022-07-09T03:33:10;19.40;99.90
34768;DHT22;21755;43.608;1.236;2022-07-09T03:35:36;19.70;99.90
34768;DHT22;21755;43.608;1.236;2022-07-09T03:38:02;19.50;99.90
34768;DHT22;21755;43.608;1.236;2022-07-09T03:40:28;19.40;99.90
34768;DHT22;21755;43.608;1.236;2022-07-09T03:42:54;19.40;99.90
34768;DHT22;21755;43.608;1.236;2022-07-09T03:45:20;19.60;99.90
34768;DHT22;21755;43.608;1.236;2022-07-09T03:47:46;19.70;99.90
34768;DHT22;21755;43.608;1.236;2022-07-09T03:50:14;19.50;99.90
34768;DHT22;21755;43.608;1.236;2022-07-09T03:52:40;19.40;99.90
34768;DHT22;21755;43.608;1.236;2022-07-09T03:55:06;19.50;99.90
34768;DHT22;21755;43.608;1.236;2022-07-09T03:57:32;19.50;99.90
34768;DHT22;21755;43.608;1.236;2022-07-09T03:59:58;19.60;99.90
34768;DHT22;21755;43.608;1.236;2022-07-09T04:02:24;19.80;99.90
34768;DHT22;21755;43.608;1.236;2022-07-09T04:04:50;19.80;99.90
34768;DHT22;21755;43.608;1.236;2022-07-09T04:07:16;19.70;99.90
34768;DHT22;21755;43.608;1.236;2022-07-09T04:09:42;19.60;99.90
34768;DHT22;21755;43.608;1.236;2022-07-09T04:12:08;19.60;99.90
34768;DHT22;21755;43.608;1.236;2022-07-09T04:14:34;19.60;99.90
34768;DHT22;21755;43.608;1.236;2022-07-09T04:17:00;19.50;99.90
34768;DHT22;21755;43.608;1.236;2022-07-09T04:19:26;19.40;99.90
34768;DHT22;21755;43.608;1.236;2022-07-09T04:21:52;19.30;99.90
34768;DHT22;21755;43.608;1.236;2022-07-09T04:24:18;19.50;99.90
34768;DHT22;21755;43.608;1.236;2022-07-09T04:26:44;19.40;99.90
34768;DHT22;21755;43.608;1.236;2022-07-09T04:29:10;19.30;99.90
34768;DHT22;21755;43.608;1.236;2022-07-09T04:31:36;19.10;99.90
34768;DHT22;21755;43.608;1.236;2022-07-09T04:34:02;19.20;99.90
34768;DHT22;21755;43.608;1.236;2022-07-09T04:36:28;19.20;99.90
34768;DHT22;21755;43.608;1.236;2022-07-09T04:38:54;19.30;99.90
34768;DHT22;21755;43.608;1.236;2022-07-09T04:41:21;19.40;99.90
34768;DHT22;21755;43.608;1.236;2022-07-09T04:43:47;19.60;99.90
34768;DHT22;21755;43.608;1.236;2022-07-09T04:46:13;19.60;99.90
34768;DHT22;21755;43.608;1.236;2022-07-09T04:48:41;19.60;99.90
34768;DHT22;21755;43.608;1.236;2022-07-09T04:51:07;19.60;99.90
34768;DHT22;21755;43.608;1.236;2022-07-09T04:53:33;19.60;99.90
34768;DHT22;21755;43.608;1.236;2022-07-09T04:55:59;19.50;99.90
34768;DHT22;21755;43.608;1.236;2022-07-09T04:58:25;19.40;99.90
34768;DHT22;21755;43.608;1.236;2022-07-09T05:00:51;19.50;99.90
34768;DHT22;21755;43.608;1.236;2022-07-09T05:03:17;19.70;99.90
34768;DHT22;21755;43.608;1.236;2022-07-09T05:05:43;19.70;99.90
34768;DHT22;21755;43.608;1.236;2022-07-09T05:08:09;19.70;99.90
34768;DHT22;21755;43.608;1.236;2022-07-09T05:10:35;19.80;99.90
34768;DHT22;21755;43.608;1.236;2022-07-09T05:13:01;19.80;99.90
34768;DHT22;21755;43.608;1.236;2022-07-09T05:15:27;19.70;99.90
34768;DHT22;21755;43.608;1.236;2022-07-09T05:17:56;19.50;99.90
34768;DHT22;21755;43.608;1.236;2022-07-09T05:20:22;19.50;99.90
34768;DHT22;21755;43.608;1.236;2022-07-09T05:22:48;19.70;99.90
34768;DHT22;21755;43.608;1.236;2022-07-09T05:25:14;19.80;99.90
34768;DHT22;21755;43.608;1.236;2022-07-09T05:27:44;19.80;99.90
34768;DHT22;21755;43.608;1.236;2022-07-09T05:30:11;19.40;99.90
34768;DHT22;21755;43.608;1.236;2022-07-09T05:32:39;19.00;99.90
34768;DHT22;21755;43.608;1.236;2022-07-09T05:35:06;19.10;99.90
34768;DHT22;21755;43.608;1.236;2022-07-09T05:37:32;19.30;99.90
34768;DHT22;21755;43.608;1.236;2022-07-09T05:39:58;19.40;99.90
34768;DHT22;21755;43.608;1.236;2022-07-09T05:42:24;19.40;99.90
34768;DHT22;21755;43.608;1.236;2022-07-09T05:44:50;19.40;99.90
34768;DHT22;21755;43.608;1.236;2022-07-09T05:47:16;19.30;99.90
34768;DHT22;21755;43.608;1.236;2022-07-09T05:49:42;19.50;99.90
34768;DHT22;21755;43.608;1.236;2022-07-09T05:52:08;19.40;99.90
34768;DHT22;21755;43.608;1.236;2022-07-09T05:54:34;19.70;99.90
34768;DHT22;21755;43.608;1.236;2022-07-09T05:56:59;19.80;99.90
34768;DHT22;21755;43.608;1.236;2022-07-09T05:59:25;19.80;99.90
34768;DHT22;21755;43.608;1.236;2022-07-09T06:01:51;20.00;99.90
34768;DHT22;21755;43.608;1.236;2022-07-09T06:04:17;20.20;99.90
34768;DHT22;21755;43.608;1.236;2022-07-09T06:06:43;20.10;99.90
34768;DHT22;21755;43.608;1.236;2022-07-09T06:09:09;20.00;99.90
34768;DHT22;21755;43.608;1.236;2022-07-09T06:11:35;20.40;99.90
34768;DHT22;21755;43.608;1.236;2022-07-09T06:14:01;20.40;99.90
34768;DHT22;21755;43.608;1.236;2022-07-09T06:16:27;20.40;99.90
34768;DHT22;21755;43.608;1.236;2022-07-09T06:18:53;20.20;99.90
34768;DHT22;21755;43.608;1.236;2022-07-09T06:21:19;20.30;99.90
34768;DHT22;21755;43.608;1.236;2022-07-09T06:23:45;20.20;99.90
34768;DHT22;21755;43.608;1.236;2022-07-09T06:26:11;20.40;99.90
34768;DHT22;21755;43.608;1.236;2022-07-09T06:28:37;20.40;99.90
34768;DHT22;21755;43.608;1.236;2022-07-09T06:31:04;20.70;99.90
34768;DHT22;21755;43.608;1.236;2022-07-09T06:33:30;20.60;99.90
34768;DHT22;21755;43.608;1.236;2022-07-09T06:35:56;20.70;99.90
34768;DHT22;21755;43.608;1.236;2022-07-09T06:38:21;20.60;99.90
34768;DHT22;21755;43.608;1.236;2022-07-09T06:40:48;20.70;99.90
34768;DHT22;21755;43.608;1.236;2022-07-09T06:43:14;20.70;99.90
34768;DHT22;21755;43.608;1.236;2022-07-09T06:45:43;20.80;99.90
34768;DHT22;21755;43.608;1.236;2022-07-09T06:48:09;20.90;99.90
34768;DHT22;21755;43.608;1.236;2022-07-09T06:50:35;21.20;99.90
34768;DHT22;21755;43.608;1.236;2022-07-09T06:53:01;21.40;99.90
34768;DHT22;21755;43.608;1.236;2022-07-09T06:55:26;21.30;99.90
34768;DHT22;21755;43.608;1.236;2022-07-09T06:57:53;21.30;99.90
34768;DHT22;21755;43.608;1.236;2022-07-09T07:00:19;21.30;99.90
34768;DHT22;21755;43.608;1.236;2022-07-09T07:02:45;21.50;99.90
34768;DHT22;21755;43.608;1.236;2022-07-09T07:05:11;21.90;99.90
34768;DHT22;21755;43.608;1.236;2022-07-09T07:07:37;22.10;99.90
34768;DHT22;21755;43.608;1.236;2022-07-09T07:10:03;22.00;99.90
34768;DHT22;21755;43.608;1.236;2022-07-09T07:12:29;22.20;99.90
34768;DHT22;21755;43.608;1.236;2022-07-09T07:14:55;22.30;99.90
34768;DHT22;21755;43.608;1.236;2022-07-09T07:17:21;22.40;99.90
34768;DHT22;21755;43.608;1.236;2022-07-09T07:19:47;22.40;99.90
34768;DHT22;21755;43.608;1.236;2022-07-09T07:22:13;22.30;99.90
34768;DHT22;21755;43.608;1.236;2022-07-09T07:24:39;22.20;99.90
34768;DHT22;21755;43.608;1.236;2022-07-09T07:27:05;22.20;99.90
34768;DHT22;21755;43.608;1.236;2022-07-09T07:29:31;22.10;99.90
34768;DHT22;21755;43.608;1.236;2022-07-09T07:31:56;22.10;99.90
34768;DHT22;21755;43.608;1.236;2022-07-09T07:34:23;22.20;99.90
34768;DHT22;21755;43.608;1.236;2022-07-09T07:36:50;22.30;99.90
34768;DHT22;21755;43.608;1.236;2022-07-09T07:39:20;22.30;99.90
34768;DHT22;21755;43.608;1.236;2022-07-09T07:41:50;22.40;99.90
34768;DHT22;21755;43.608;1.236;2022-07-09T07:44:16;22.40;99.90
34768;DHT22;21755;43.608;1.236;2022-07-09T07:46:42;22.60;99.90
34768;DHT22;21755;43.608;1.236;2022-07-09T07:49:08;22.80;99.90
34768;DHT22;21755;43.608;1.236;2022-07-09T07:51:34;22.80;99.90
34768;DHT22;21755;43.608;1.236;2022-07-09T07:54:00;22.80;99.90
34768;DHT22;21755;43.608;1.236;2022-07-09T07:56:26;22.90;99.90
34768;DHT22;21755;43.608;1.236;2022-07-09T07:58:52;22.90;99.90
34768;DHT22;21755;43.608;1.236;2022-07-09T08:01:18;23.20;99.90
34768;DHT22;21755;43.608;1.236;2022-07-09T08:03:44;23.40;99.90
34768;DHT22;21755;43.608;1.236;2022-07-09T08:06:10;23.30;99.90
34768;DHT22;21755;43.608;1.236;2022-07-09T08:08:36;23.40;99.90
34768;DHT22;21755;43.608;1.236;2022-07-09T08:11:02;23.70;99.90
34768;DHT22;21755;43.608;1.236;2022-07-09T08:13:28;23.50;99.90
34768;DHT22;21755;43.608;1.236;2022-07-09T08:15:54;23.60;99.90
34768;DHT22;21755;43.608;1.236;2022-07-09T08:18:20;23.70;99.90
34768;DHT22;21755;43.608;1.236;2022-07-09T08:20:46;23.80;99.90
34768;DHT22;21755;43.608;1.236;2022-07-09T08:23:15;23.80;99.90
34768;DHT22;21755;43.608;1.236;2022-07-09T08:25:40;24.00;99.90
34768;DHT22;21755;43.608;1.236;2022-07-09T08:28:06;23.90;99.90
34768;DHT22;21755;43.608;1.236;2022-07-09T08:30:32;24.10;99.90
34768;DHT22;21755;43.608;1.236;2022-07-09T08:32:58;24.30;99.90
34768;DHT22;21755;43.608;1.236;2022-07-09T08:35:24;24.50;99.90
34768;DHT22;21755;43.608;1.236;2022-07-09T08:37:52;24.70;99.90
34768;DHT22;21755;43.608;1.236;2022-07-09T08:40:18;24.50;99.90
34768;DHT22;21755;43.608;1.236;2022-07-09T08:42:44;24.50;99.90
34768;DHT22;21755;43.608;1.236;2022-07-09T08:45:13;24.70;99.90
34768;DHT22;21755;43.608;1.236;2022-07-09T08:47:41;25.00;99.90
34768;DHT22;21755;43.608;1.236;2022-07-09T08:50:08;25.00;99.90
34768;DHT22;21755;43.608;1.236;2022-07-09T08:52:35;25.30;99.90
34768;DHT22;21755;43.608;1.236;2022-07-09T08:55:02;25.50;99.90
34768;DHT22;21755;43.608;1.236;2022-07-09T08:57:28;25.50;99.90
34768;DHT22;21755;43.608;1.236;2022-07-09T08:59:54;25.60;99.90
34768;DHT22;21755;43.608;1.236;2022-07-09T09:02:20;25.70;99.90
34768;DHT22;21755;43.608;1.236;2022-07-09T09:04:46;25.70;99.90
34768;DHT22;21755;43.608;1.236;2022-07-09T09:07:17;25.70;99.90
34768;DHT22;21755;43.608;1.236;2022-07-09T09:09:44;25.70;99.90
34768;DHT22;21755;43.608;1.236;2022-07-09T09:12:10;26.00;99.90
34768;DHT22;21755;43.608;1.236;2022-07-09T09:14:37;26.40;99.90
34768;DHT22;21755;43.608;1.236;2022-07-09T09:17:05;26.40;99.90
34768;DHT22;21755;43.608;1.236;2022-07-09T09:19:31;26.50;99.70
34768;DHT22;21755;43.608;1.236;2022-07-09T09:21:58;26.50;99.00
34768;DHT22;21755;43.608;1.236;2022-07-09T09:24:27;26.70;99.90
34768;DHT22;21755;43.608;1.236;2022-07-09T09:26:59;26.80;99.90
34768;DHT22;21755;43.608;1.236;2022-07-09T09:29:25;26.90;99.20
34768;DHT22;21755;43.608;1.236;2022-07-09T09:31:52;26.70;99.20
34768;DHT22;21755;43.608;1.236;2022-07-09T09:34:18;27.00;99.40
34768;DHT22;21755;43.608;1.236;2022-07-09T09:36:49;27.20;99.50
34768;DHT22;21755;43.608;1.236;2022-07-09T09:39:27;27.50;99.50
34768;DHT22;21755;43.608;1.236;2022-07-09T09:41:59;27.60;99.10
34768;DHT22;21755;43.608;1.236;2022-07-09T09:44:31;27.60;98.50
34768;DHT22;21755;43.608;1.236;2022-07-09T09:47:03;27.70;98.40
34768;DHT22;21755;43.608;1.236;2022-07-09T09:49:30;27.70;97.40
34768;DHT22;21755;43.608;1.236;2022-07-09T09:54:22;27.60;96.90
34768;DHT22;21755;43.608;1.236;2022-07-09T09:56:49;27.70;97.10
34768;DHT22;21755;43.608;1.236;2022-07-09T09:59:16;27.60;95.60
34768;DHT22;21755;43.608;1.236;2022-07-09T10:01:44;27.70;94.60
34768;DHT22;21755;43.608;1.236;2022-07-09T10:04:11;27.80;95.80
34768;DHT22;21755;43.608;1.236;2022-07-09T10:06:37;27.80;94.80
34768;DHT22;21755;43.608;1.236;2022-07-09T10:09:04;27.70;95.20
34768;DHT22;21755;43.608;1.236;2022-07-09T10:11:43;27.80;94.60
34768;DHT22;21755;43.608;1.236;2022-07-09T10:16:49;28.20;95.40
34768;DHT22;21755;43.608;1.236;2022-07-09T10:19:26;28.20;92.90
34768;DHT22;21755;43.608;1.236;2022-07-09T10:21:53;28.10;93.10
34768;DHT22;21755;43.608;1.236;2022-07-09T10:24:31;28.10;92.90
34768;DHT22;21755;43.608;1.236;2022-07-09T10:27:08;28.40;94.80
34768;DHT22;21755;43.608;1.236;2022-07-09T10:32:32;28.50;94.10
34768;DHT22;21755;43.608;1.236;2022-07-09T10:37:36;28.50;91.50
34768;DHT22;21755;43.608;1.236;2022-07-09T10:40:14;28.60;90.90
34768;DHT22;21755;43.608;1.236;2022-07-09T10:42:42;28.40;91.50
34768;DHT22;21755;43.608;1.236;2022-07-09T10:47:57;28.50;90.90
34768;DHT22;21755;43.608;1.236;2022-07-09T10:50:25;28.70;92.00
34768;DHT22;21755;43.608;1.236;2022-07-09T10:52:51;28.80;90.20
34768;DHT22;21755;43.608;1.236;2022-07-09T10:55:24;28.80;90.50
34768;DHT22;21755;43.608;1.236;2022-07-09T10:57:51;28.80;90.90
34768;DHT22;21755;43.608;1.236;2022-07-09T11:00:21;28.70;90.20
34768;DHT22;21755;43.608;1.236;2022-07-09T11:05:27;28.80;89.00
34768;DHT22;21755;43.608;1.236;2022-07-09T11:08:01;29.20;90.40
34768;DHT22;21755;43.608;1.236;2022-07-09T11:10:29;29.60;90.80
34768;DHT22;21755;43.608;1.236;2022-07-09T11:12:57;29.40;89.60
34768;DHT22;21755;43.608;1.236;2022-07-09T11:15:26;29.30;88.20
34768;DHT22;21755;43.608;1.236;2022-07-09T11:18:19;29.50;88.70
34768;DHT22;21755;43.608;1.236;2022-07-09T11:20:46;29.60;89.00
34768;DHT22;21755;43.608;1.236;2022-07-09T11:23:14;29.80;88.90
34768;DHT22;21755;43.608;1.236;2022-07-09T11:25:44;29.70;87.50
34768;DHT22;21755;43.608;1.236;2022-07-09T11:28:19;30.00;88.30
34768;DHT22;21755;43.608;1.236;2022-07-09T11:30:46;29.90;85.80
34768;DHT22;21755;43.608;1.236;2022-07-09T11:33:22;29.60;87.60
34768;DHT22;21755;43.608;1.236;2022-07-09T11:35:48;29.80;88.70
34768;DHT22;21755;43.608;1.236;2022-07-09T11:38:15;29.90;87.90
34768;DHT22;21755;43.608;1.236;2022-07-09T11:40:41;29.90;86.50
34768;DHT22;21755;43.608;1.236;2022-07-09T11:43:16;29.80;85.90
34768;DHT22;21755;43.608;1.236;2022-07-09T11:45:52;29.80;87.90
34768;DHT22;21755;43.608;1.236;2022-07-09T11:48:19;29.90;87.50
34768;DHT22;21755;43.608;1.236;2022-07-09T11:50:45;30.20;88.10
34768;DHT22;21755;43.608;1.236;2022-07-09T11:53:24;30.20;88.20
34768;DHT22;21755;43.608;1.236;2022-07-09T11:56:00;30.40;89.70
34768;DHT22;21755;43.608;1.236;2022-07-09T11:58:26;30.40;85.70
34768;DHT22;21755;43.608;1.236;2022-07-09T12:00:52;30.60;87.50
34768;DHT22;21755;43.608;1.236;2022-07-09T12:03:29;30.40;85.60
34768;DHT22;21755;43.608;1.236;2022-07-09T12:05:58;30.60;84.60
34768;DHT22;21755;43.608;1.236;2022-07-09T12:08:31;30.30;83.90
34768;DHT22;21755;43.608;1.236;2022-07-09T12:10:58;30.50;83.60
34768;DHT22;21755;43.608;1.236;2022-07-09T12:13:24;30.70;88.00
34768;DHT22;21755;43.608;1.236;2022-07-09T12:15:50;30.60;82.70
34768;DHT22;21755;43.608;1.236;2022-07-09T12:18:16;30.80;86.00
34768;DHT22;21755;43.608;1.236;2022-07-09T12:20:43;30.70;83.90
34768;DHT22;21755;43.608;1.236;2022-07-09T12:23:09;31.00;84.80
34768;DHT22;21755;43.608;1.236;2022-07-09T12:25:35;31.00;86.20
34768;DHT22;21755;43.608;1.236;2022-07-09T12:28:00;31.10;84.40
34768;DHT22;21755;43.608;1.236;2022-07-09T12:30:26;31.30;86.20
34768;DHT22;21755;43.608;1.236;2022-07-09T12:32:55;31.10;83.60
34768;DHT22;21755;43.608;1.236;2022-07-09T12:35:24;31.30;86.50
34768;DHT22;21755;43.608;1.236;2022-07-09T12:37:50;31.40;84.00
34768;DHT22;21755;43.608;1.236;2022-07-09T12:40:16;31.10;83.70
34768;DHT22;21755;43.608;1.236;2022-07-09T12:42:42;31.00;83.50
34768;DHT22;21755;43.608;1.236;2022-07-09T12:45:09;30.80;82.30
34768;DHT22;21755;43.608;1.236;2022-07-09T12:47:35;31.20;83.80
34768;DHT22;21755;43.608;1.236;2022-07-09T12:50:02;31.10;81.30
34768;DHT22;21755;43.608;1.236;2022-07-09T12:52:36;30.80;82.10
34768;DHT22;21755;43.608;1.236;2022-07-09T12:55:04;31.00;84.50
34768;DHT22;21755;43.608;1.236;2022-07-09T12:57:30;31.10;84.00
34768;DHT22;21755;43.608;1.236;2022-07-09T12:59:56;31.10;82.50
34768;DHT22;21755;43.608;1.236;2022-07-09T13:02:23;31.10;82.40
34768;DHT22;21755;43.608;1.236;2022-07-09T13:04:48;31.20;82.40
34768;DHT22;21755;43.608;1.236;2022-07-09T13:07:14;31.40;81.10
34768;DHT22;21755;43.608;1.236;2022-07-09T13:09:40;31.90;85.10
34768;DHT22;21755;43.608;1.236;2022-07-09T13:12:06;31.90;82.30
34768;DHT22;21755;43.608;1.236;2022-07-09T13:14:32;31.70;81.10
34768;DHT22;21755;43.608;1.236;2022-07-09T13:16:58;31.50;80.70
34768;DHT22;21755;43.608;1.236;2022-07-09T13:19:24;31.30;80.70
34768;DHT22;21755;43.608;1.236;2022-07-09T13:21:50;31.30;83.50
34768;DHT22;21755;43.608;1.236;2022-07-09T13:24:16;31.30;80.30
34768;DHT22;21755;43.608;1.236;2022-07-09T13:26:42;31.40;81.00
34768;DHT22;21755;43.608;1.236;2022-07-09T13:29:08;31.50;82.40
34768;DHT22;21755;43.608;1.236;2022-07-09T13:31:34;31.60;81.40
34768;DHT22;21755;43.608;1.236;2022-07-09T13:34:00;31.80;83.70
34768;DHT22;21755;43.608;1.236;2022-07-09T13:36:26;31.70;81.30
34768;DHT22;21755;43.608;1.236;2022-07-09T13:38:52;31.80;81.50
34768;DHT22;21755;43.608;1.236;2022-07-09T13:41:18;31.60;81.00
34768;DHT22;21755;43.608;1.236;2022-07-09T13:43:44;31.60;81.30
34768;DHT22;21755;43.608;1.236;2022-07-09T13:46:11;31.60;80.90
34768;DHT22;21755;43.608;1.236;2022-07-09T13:48:37;31.80;79.10
34768;DHT22;21755;43.608;1.236;2022-07-09T13:51:03;31.70;79.10
34768;DHT22;21755;43.608;1.236;2022-07-09T13:53:29;31.80;78.40
34768;DHT22;21755;43.608;1.236;2022-07-09T13:55:58;31.60;77.60
34768;DHT22;21755;43.608;1.236;2022-07-09T13:58:24;31.50;77.50
34768;DHT22;21755;43.608;1.236;2022-07-09T14:00:51;31.60;78.60
34768;DHT22;21755;43.608;1.236;2022-07-09T14:03:17;31.70;77.80
34768;DHT22;21755;43.608;1.236;2022-07-09T14:05:43;31.70;78.50
34768;DHT22;21755;43.608;1.236;2022-07-09T14:08:09;31.70;78.60
34768;DHT22;21755;43.608;1.236;2022-07-09T14:10:36;31.60;76.80
34768;DHT22;21755;43.608;1.236;2022-07-09T14:13:02;31.70;78.50
34768;DHT22;21755;43.608;1.236;2022-07-09T14:15:30;31.70;78.00
34768;DHT22;21755;43.608;1.236;2022-07-09T14:17:57;31.60;77.20
34768;DHT22;21755;43.608;1.236;2022-07-09T14:20:23;31.70;77.20
34768;DHT22;21755;43.608;1.236;2022-07-09T14:22:49;31.90;76.70
34768;DHT22;21755;43.608;1.236;2022-07-09T14:25:14;31.70;75.80
34768;DHT22;21755;43.608;1.236;2022-07-09T14:27:41;31.90;77.90
34768;DHT22;21755;43.608;1.236;2022-07-09T14:30:07;31.80;79.40
34768;DHT22;21755;43.608;1.236;2022-07-09T14:32:34;31.80;76.70
34768;DHT22;21755;43.608;1.236;2022-07-09T14:35:02;31.90;78.40
34768;DHT22;21755;43.608;1.236;2022-07-09T14:37:28;32.00;76.50
34768;DHT22;21755;43.608;1.236;2022-07-09T14:39:54;32.10;79.10
34768;DHT22;21755;43.608;1.236;2022-07-09T14:42:20;32.20;78.00
34768;DHT22;21755;43.608;1.236;2022-07-09T14:44:48;32.10;77.60
34768;DHT22;21755;43.608;1.236;2022-07-09T14:47:15;32.20;77.40
34768;DHT22;21755;43.608;1.236;2022-07-09T14:49:41;32.10;77.40
34768;DHT22;21755;43.608;1.236;2022-07-09T14:52:13;32.20;78.40
34768;DHT22;21755;43.608;1.236;2022-07-09T14:54:40;32.30;77.30
34768;DHT22;21755;43.608;1.236;2022-07-09T14:57:05;32.10;77.10
34768;DHT22;21755;43.608;1.236;2022-07-09T14:59:33;32.00;77.50
34768;DHT22;21755;43.608;1.236;2022-07-09T15:02:01;32.20;78.50
34768;DHT22;21755;43.608;1.236;2022-07-09T15:04:26;32.20;77.10
34768;DHT22;21755;43.608;1.236;2022-07-09T15:06:52;32.30;77.10
34768;DHT22;21755;43.608;1.236;2022-07-09T15:09:18;32.30;76.30
34768;DHT22;21755;43.608;1.236;2022-07-09T15:11:44;32.20;75.80
34768;DHT22;21755;43.608;1.236;2022-07-09T15:14:10;32.20;76.30
34768;DHT22;21755;43.608;1.236;2022-07-09T15:16:36;32.30;77.50
34768;DHT22;21755;43.608;1.236;2022-07-09T15:19:02;32.40;76.60
34768;DHT22;21755;43.608;1.236;2022-07-09T15:21:28;32.40;76.40
34768;DHT22;21755;43.608;1.236;2022-07-09T15:23:57;32.30;75.60
34768;DHT22;21755;43.608;1.236;2022-07-09T15:26:23;32.60;78.20
34768;DHT22;21755;43.608;1.236;2022-07-09T15:28:49;32.60;77.10
34768;DHT22;21755;43.608;1.236;2022-07-09T15:31:15;32.40;77.00
34768;DHT22;21755;43.608;1.236;2022-07-09T15:33:41;32.30;76.00
34768;DHT22;21755;43.608;1.236;2022-07-09T15:36:07;32.50;76.70
34768;DHT22;21755;43.608;1.236;2022-07-09T15:38:34;32.30;76.70
34768;DHT22;21755;43.608;1.236;2022-07-09T15:41:00;32.20;76.50
34768;DHT22;21755;43.608;1.236;2022-07-09T15:43:26;32.20;76.20